createdAt,value
2023-05-21T00:00:03.076Z,1011.11
2023-05-21T00:01:03.198Z,1011.07
2023-05-21T00:02:03.123Z,1011.06
2023-05-21T00:03:03.256Z,1011.05
2023-05-21T00:04:03.243Z,1011.06
2023-05-21T00:05:03.212Z,1010.98
2023-05-21T00:06:03.245Z,1011.00
2023-05-21T00:07:03.264Z,1011.04
2023-05-21T00:08:03.307Z,1011.01
2023-05-21T00:09:03.336Z,1011.00
2023-05-21T00:10:03.348Z,1010.96
2023-05-21T00:11:03.379Z,1011.00
2023-05-21T00:12:03.414Z,1010.91
2023-05-21T00:13:03.438Z,1010.93
2023-05-21T00:14:03.460Z,1010.97
2023-05-21T00:15:03.532Z,1010.89
2023-05-21T00:16:03.593Z,1010.93
2023-05-21T00:17:03.547Z,1010.91
2023-05-21T00:18:03.655Z,1010.89
2023-05-21T00:19:03.664Z,1010.87
2023-05-21T00:20:03.634Z,1010.94
2023-05-21T00:21:03.658Z,1010.91
2023-05-21T00:22:03.752Z,1010.85
2023-05-21T00:23:03.717Z,1010.88
2023-05-21T00:24:03.746Z,1010.82
2023-05-21T00:25:03.774Z,1010.78
2023-05-21T00:26:03.796Z,1010.78
2023-05-21T00:27:03.827Z,1010.82
2023-05-21T00:28:04.005Z,1010.82
2023-05-21T00:29:03.887Z,1010.77
2023-05-21T00:30:03.912Z,1010.79
2023-05-21T00:31:03.957Z,1010.74
2023-05-21T00:32:04.045Z,1010.76
2023-05-21T00:33:04.082Z,1010.70
2023-05-21T00:34:04.022Z,1010.62
2023-05-21T00:35:04.051Z,1010.68
2023-05-21T00:36:04.075Z,1010.65
2023-05-21T00:37:04.103Z,1010.69
2023-05-21T00:38:04.128Z,1010.70
2023-05-21T00:39:04.159Z,1010.70
2023-05-21T00:40:04.185Z,1010.67
2023-05-21T00:41:04.214Z,1010.66
2023-05-21T00:42:04.244Z,1010.67
2023-05-21T00:43:04.278Z,1010.68
2023-05-21T00:44:04.295Z,1010.67
2023-05-21T00:45:04.326Z,1010.65
2023-05-21T00:46:04.373Z,1010.64
2023-05-21T00:47:04.411Z,1010.60
2023-05-21T00:48:04.499Z,1010.66
2023-05-21T00:49:04.440Z,1010.66
2023-05-21T00:50:04.464Z,1010.66
2023-05-21T00:51:04.493Z,1010.63
2023-05-21T00:52:04.520Z,1010.65
2023-05-21T00:53:04.548Z,1010.61
2023-05-21T00:54:04.593Z,1010.61
2023-05-21T00:55:04.604Z,1010.58
2023-05-21T00:56:04.636Z,1010.56
2023-05-21T00:57:04.658Z,1010.56
2023-05-21T00:58:04.684Z,1010.53
2023-05-21T00:59:04.716Z,1010.57
2023-05-21T01:00:04.749Z,1010.60
2023-05-21T01:01:04.838Z,1010.58
2023-05-21T01:02:04.855Z,1010.57
2023-05-21T01:03:05.136Z,1010.57
2023-05-21T01:04:04.867Z,1010.59
2023-05-21T01:05:04.885Z,1010.57
2023-05-21T01:06:04.910Z,1010.59
2023-05-21T01:07:04.940Z,1010.55
2023-05-21T01:08:04.964Z,1010.53
2023-05-21T01:09:05.455Z,1010.52
2023-05-21T01:10:05.026Z,1010.53
2023-05-21T01:11:05.060Z,1010.50
2023-05-21T01:12:05.080Z,1010.51
2023-05-21T01:13:05.107Z,1010.51
2023-05-21T01:14:05.140Z,1010.50
2023-05-21T01:15:05.161Z,1010.48
2023-05-21T01:16:05.190Z,1010.57
2023-05-21T01:17:05.427Z,1010.54
2023-05-21T01:18:05.318Z,1010.50
2023-05-21T01:19:05.502Z,1010.51
2023-05-21T01:20:06.852Z,1010.56
2023-05-21T01:21:05.347Z,1010.56
2023-05-21T01:22:05.365Z,1010.55
2023-05-21T01:23:05.386Z,1010.52
2023-05-21T01:24:05.421Z,1010.52
2023-05-21T01:25:05.441Z,1010.55
2023-05-21T01:26:05.465Z,1010.57
2023-05-21T01:27:05.504Z,1010.51
2023-05-21T01:28:05.522Z,1010.54
2023-05-21T01:29:05.553Z,1010.48
2023-05-21T01:30:05.585Z,1010.52
2023-05-21T01:31:05.611Z,1010.49
2023-05-21T01:32:05.646Z,1010.46
2023-05-21T01:34:05.745Z,1010.41
2023-05-21T01:35:05.751Z,1010.46
2023-05-21T01:36:05.746Z,1010.46
2023-05-21T01:37:05.781Z,1010.40
2023-05-21T01:38:05.807Z,1010.36
2023-05-21T01:39:05.840Z,1010.39
2023-05-21T01:40:05.875Z,1010.42
2023-05-21T01:41:05.890Z,1010.38
2023-05-21T01:42:05.918Z,1010.33
2023-05-21T01:43:05.961Z,1010.36
2023-05-21T01:44:06.040Z,1010.33
2023-05-21T01:45:06.025Z,1010.31
2023-05-21T01:46:06.080Z,1010.30
2023-05-21T01:47:06.086Z,1010.32
2023-05-21T01:48:06.139Z,1010.35
2023-05-21T01:49:06.119Z,1010.40
2023-05-21T01:50:06.160Z,1010.37
2023-05-21T01:51:06.197Z,1010.38
2023-05-21T01:52:06.213Z,1010.41
2023-05-21T01:53:06.228Z,1010.37
2023-05-21T01:54:06.253Z,1010.39
2023-05-21T01:55:06.286Z,1010.41
2023-05-21T01:56:06.309Z,1010.38
2023-05-21T01:57:06.347Z,1010.40
2023-05-21T01:58:06.372Z,1010.42
2023-05-21T01:59:06.396Z,1010.37
2023-05-21T02:00:06.420Z,1010.41
2023-05-21T02:01:06.452Z,1010.41
2023-05-21T02:02:06.504Z,1010.41
2023-05-21T02:03:06.565Z,1010.36
2023-05-21T02:04:06.582Z,1010.43
2023-05-21T02:05:06.579Z,1010.30
2023-05-21T02:06:06.590Z,1010.41
2023-05-21T02:07:06.637Z,1010.31
2023-05-21T02:08:06.646Z,1010.31
2023-05-21T02:09:06.678Z,1010.33
2023-05-21T02:10:06.707Z,1010.32
2023-05-21T02:11:06.729Z,1010.31
2023-05-21T02:12:06.789Z,1010.33
2023-05-21T02:13:06.784Z,1010.32
2023-05-21T02:14:06.812Z,1010.32
2023-05-21T02:15:06.842Z,1010.37
2023-05-21T02:16:06.893Z,1010.35
2023-05-21T02:17:06.905Z,1010.33
2023-05-21T02:18:06.962Z,1010.33
2023-05-21T02:19:07.009Z,1010.33
2023-05-21T02:20:06.980Z,1010.33
2023-05-21T02:21:07.030Z,1010.33
2023-05-21T02:22:07.037Z,1010.31
2023-05-21T02:23:07.091Z,1010.33
2023-05-21T02:24:07.101Z,1010.31
2023-05-21T02:25:07.122Z,1010.31
2023-05-21T02:26:07.155Z,1010.31
2023-05-21T02:27:07.180Z,1010.35
2023-05-21T02:28:07.220Z,1010.30
2023-05-21T02:29:07.235Z,1010.36
2023-05-21T02:30:07.270Z,1010.33
2023-05-21T02:31:07.288Z,1010.32
2023-05-21T02:32:07.325Z,1010.36
2023-05-21T02:34:07.439Z,1010.28
2023-05-21T02:36:08.787Z,1010.31
2023-05-21T02:42:07.932Z,1010.24
2023-05-21T02:45:08.799Z,1010.26
2023-05-21T02:47:08.464Z,1010.22
2023-05-21T02:48:08.070Z,1010.19
2023-05-21T02:52:07.890Z,1010.19
2023-05-21T02:53:07.929Z,1010.18
2023-05-21T02:55:08.294Z,1010.17
2023-05-21T02:56:08.600Z,1010.20
2023-05-21T02:57:08.029Z,1010.23
2023-05-21T03:02:09.911Z,1010.19
2023-05-21T03:03:08.907Z,1010.17
2023-05-21T03:07:09.317Z,1010.11
2023-05-21T03:10:08.394Z,1010.08
2023-05-21T03:14:08.706Z,1010.06
2023-05-21T03:16:09.928Z,1010.03
2023-05-21T03:22:08.957Z,1010.04
2023-05-21T03:26:08.840Z,1010.02
2023-05-21T03:28:09.495Z,1010.02
2023-05-21T03:31:09.674Z,1010.03
2023-05-21T03:33:09.042Z,1010.06
2023-05-21T03:35:10.415Z,1010.07
2023-05-21T03:51:09.562Z,1010.04
2023-05-21T03:52:09.541Z,1010.02
2023-05-21T03:53:10.984Z,1010.01
2023-05-21T03:54:09.628Z,1009.96
2023-05-21T03:55:09.630Z,1010.03
2023-05-21T03:56:09.650Z,1010.02
2023-05-21T03:57:09.697Z,1009.97
2023-05-21T03:58:09.702Z,1009.97
2023-05-21T03:59:09.736Z,1009.96
2023-05-21T04:00:09.766Z,1009.97
2023-05-21T04:01:09.794Z,1009.96
2023-05-21T04:02:09.851Z,1009.97
2023-05-21T04:03:09.991Z,1009.98
2023-05-21T04:04:10.004Z,1010.01
2023-05-21T04:05:09.905Z,1010.01
2023-05-21T04:06:09.927Z,1009.94
2023-05-21T04:07:09.958Z,1009.96
2023-05-21T04:08:09.988Z,1010.04
2023-05-21T04:09:10.017Z,1010.01
2023-05-21T04:10:10.079Z,1010.02
2023-05-21T04:11:10.078Z,1010.00
2023-05-21T04:12:10.098Z,1009.99
2023-05-21T04:13:10.134Z,1009.98
2023-05-21T04:14:10.155Z,1010.00
2023-05-21T04:15:10.179Z,1010.01
2023-05-21T04:16:10.321Z,1010.04
2023-05-21T04:17:10.234Z,1010.03
2023-05-21T04:18:10.262Z,1010.01
2023-05-21T04:19:10.336Z,1009.98
2023-05-21T04:20:10.320Z,1010.03
2023-05-21T04:21:10.346Z,1009.96
2023-05-21T04:22:10.374Z,1009.97
2023-05-21T04:23:10.405Z,1010.02
2023-05-21T04:24:10.426Z,1009.97
2023-05-21T04:25:10.456Z,1010.03
2023-05-21T04:26:10.501Z,1010.03
2023-05-21T04:27:10.516Z,1010.01
2023-05-21T04:28:10.538Z,1010.02
2023-05-21T04:29:10.574Z,1010.02
2023-05-21T04:30:10.614Z,1009.98
2023-05-21T04:31:10.643Z,1010.05
2023-05-21T04:32:10.650Z,1010.03
2023-05-21T04:33:10.684Z,1010.03
2023-05-21T04:34:10.704Z,1010.05
2023-05-21T04:35:10.733Z,1010.06
2023-05-21T04:36:11.571Z,1010.06
2023-05-21T04:37:10.799Z,1010.04
2023-05-21T04:38:10.817Z,1010.06
2023-05-21T04:39:10.859Z,1010.11
2023-05-21T04:40:10.885Z,1010.10
2023-05-21T04:41:11.027Z,1010.11
2023-05-21T04:42:11.186Z,1010.14
2023-05-21T04:43:10.962Z,1010.13
2023-05-21T04:44:10.986Z,1010.12
2023-05-21T04:45:11.010Z,1010.11
2023-05-21T04:46:11.071Z,1010.13
2023-05-21T04:47:11.101Z,1010.12
2023-05-21T04:48:11.093Z,1010.13
2023-05-21T04:49:11.123Z,1010.13
2023-05-21T04:50:11.154Z,1010.15
2023-05-21T04:51:11.185Z,1010.11
2023-05-21T04:52:11.212Z,1010.12
2023-05-21T04:53:11.235Z,1010.13
2023-05-21T04:54:11.273Z,1010.11
2023-05-21T04:55:11.312Z,1010.10
2023-05-21T04:56:11.322Z,1010.10
2023-05-21T04:57:11.346Z,1010.10
2023-05-21T04:58:11.537Z,1010.10
2023-05-21T04:59:11.403Z,1010.15
2023-05-21T05:00:11.428Z,1010.15
2023-05-21T05:01:11.508Z,1010.14
2023-05-21T05:02:11.482Z,1010.12
2023-05-21T05:03:11.602Z,1010.16
2023-05-21T05:04:11.556Z,1010.16
2023-05-21T05:05:11.576Z,1010.15
2023-05-21T05:06:11.606Z,1010.16
2023-05-21T05:07:11.627Z,1010.16
2023-05-21T05:08:13.835Z,1010.16
2023-05-21T05:09:11.685Z,1010.17
2023-05-21T05:10:11.709Z,1010.15
2023-05-21T05:11:11.740Z,1010.12
2023-05-21T05:12:11.767Z,1010.19
2023-05-21T05:13:11.793Z,1010.18
2023-05-21T05:14:11.844Z,1010.15
2023-05-21T05:15:11.862Z,1010.15
2023-05-21T05:16:11.890Z,1010.15
2023-05-21T05:17:11.910Z,1010.13
2023-05-21T05:18:12.049Z,1010.14
2023-05-21T05:19:12.044Z,1010.15
2023-05-21T05:20:12.408Z,1010.17
2023-05-21T05:21:12.023Z,1010.15
2023-05-21T05:22:13.526Z,1010.15
2023-05-21T05:23:12.081Z,1010.13
2023-05-21T05:24:12.118Z,1010.14
2023-05-21T05:25:12.136Z,1010.15
2023-05-21T05:26:12.163Z,1010.16
2023-05-21T05:27:12.192Z,1010.13
2023-05-21T05:28:12.218Z,1010.15
2023-05-21T05:29:12.248Z,1010.15
2023-05-21T05:30:12.298Z,1010.16
2023-05-21T05:31:12.322Z,1010.12
2023-05-21T05:32:12.333Z,1010.09
2023-05-21T05:33:12.368Z,1010.09
2023-05-21T05:34:12.385Z,1010.11
2023-05-21T05:35:12.419Z,1010.09
2023-05-21T05:36:12.448Z,1010.08
2023-05-21T05:37:12.478Z,1010.07
2023-05-21T05:38:12.504Z,1010.09
2023-05-21T05:39:12.530Z,1010.06
2023-05-21T05:40:12.559Z,1010.09
2023-05-21T05:41:12.587Z,1010.08
2023-05-21T05:42:12.618Z,1010.10
2023-05-21T05:43:12.646Z,1010.10
2023-05-21T05:44:12.673Z,1010.07
2023-05-21T05:45:12.716Z,1010.11
2023-05-21T05:46:12.926Z,1010.07
2023-05-21T05:47:12.761Z,1010.08
2023-05-21T05:48:12.794Z,1010.10
2023-05-21T05:49:12.819Z,1010.07
2023-05-21T05:50:12.857Z,1010.08
2023-05-21T05:51:12.878Z,1010.05
2023-05-21T05:52:12.900Z,1010.08
2023-05-21T05:53:12.933Z,1010.08
2023-05-21T05:54:12.959Z,1010.09
2023-05-21T05:55:12.987Z,1010.02
2023-05-21T05:56:13.013Z,1010.00
2023-05-21T05:57:13.048Z,1010.03
2023-05-21T05:58:13.076Z,1009.97
2023-05-21T05:59:13.101Z,1009.95
2023-05-21T06:00:13.125Z,1009.95
2023-05-21T06:01:13.159Z,1009.94
2023-05-21T06:02:13.251Z,1009.93
2023-05-21T06:03:13.342Z,1009.89
2023-05-21T06:04:13.243Z,1009.89
2023-05-21T06:05:13.277Z,1009.90
2023-05-21T06:06:13.347Z,1009.90
2023-05-21T06:07:13.340Z,1009.92
2023-05-21T06:08:13.360Z,1009.93
2023-05-21T06:09:13.388Z,1009.95
2023-05-21T06:10:13.419Z,1009.91
2023-05-21T06:11:13.445Z,1009.90
2023-05-21T06:12:15.055Z,1009.96
2023-05-21T06:13:13.500Z,1009.91
2023-05-21T06:14:13.533Z,1009.92
2023-05-21T06:15:13.568Z,1009.98
2023-05-21T06:16:13.634Z,1009.99
2023-05-21T06:17:13.619Z,1009.97
2023-05-21T06:18:13.699Z,1009.94
2023-05-21T06:19:13.813Z,1009.91
2023-05-21T06:20:13.717Z,1009.95
2023-05-21T06:21:13.735Z,1009.89
2023-05-21T06:22:13.763Z,1009.91
2023-05-21T06:23:13.799Z,1009.91
2023-05-21T06:24:13.826Z,1009.90
2023-05-21T06:25:13.853Z,1009.92
2023-05-21T06:26:13.879Z,1009.92
2023-05-21T06:27:13.910Z,1009.94
2023-05-21T06:28:13.943Z,1009.88
2023-05-21T06:29:15.530Z,1009.90
2023-05-21T06:30:14.021Z,1009.92
2023-05-21T06:31:14.184Z,1009.96
2023-05-21T06:32:14.060Z,1009.91
2023-05-21T06:33:14.247Z,1009.94
2023-05-21T06:34:14.139Z,1009.93
2023-05-21T06:35:14.154Z,1009.93
2023-05-21T06:36:14.201Z,1009.95
2023-05-21T06:37:14.209Z,1009.90
2023-05-21T06:38:14.242Z,1009.95
2023-05-21T06:39:14.269Z,1009.95
2023-05-21T06:40:14.296Z,1009.91
2023-05-21T06:41:14.330Z,1009.93
2023-05-21T06:42:14.358Z,1009.86
2023-05-21T06:43:14.558Z,1009.92
2023-05-21T06:44:14.418Z,1009.89
2023-05-21T06:46:14.505Z,1009.86
2023-05-21T06:47:14.507Z,1009.88
2023-05-21T06:48:14.540Z,1009.88
2023-05-21T06:49:15.189Z,1009.88
2023-05-21T06:50:14.838Z,1009.94
2023-05-21T06:51:14.630Z,1009.96
2023-05-21T06:53:14.716Z,1009.98
2023-05-21T06:54:14.747Z,1010.04
2023-05-21T06:55:14.959Z,1010.03
2023-05-21T06:56:15.000Z,1010.10
2023-05-21T06:57:15.046Z,1010.03
2023-05-21T06:58:14.862Z,1010.12
2023-05-21T06:59:14.926Z,1010.15
2023-05-21T07:00:14.956Z,1010.16
2023-05-21T07:01:15.379Z,1010.16
2023-05-21T07:02:15.219Z,1010.20
2023-05-21T07:03:15.130Z,1010.20
2023-05-21T07:04:15.039Z,1010.20
2023-05-21T07:05:15.072Z,1010.22
2023-05-21T07:06:15.129Z,1010.22
2023-05-21T07:07:15.158Z,1010.15
2023-05-21T07:08:17.788Z,1010.13
2023-05-21T07:09:16.615Z,1010.10
2023-05-21T07:10:17.869Z,1010.10
2023-05-21T07:11:15.781Z,1010.06
2023-05-21T07:12:15.283Z,1010.15
2023-05-21T07:13:15.333Z,1010.10
2023-05-21T07:14:15.353Z,1010.14
2023-05-21T07:15:16.194Z,1010.12
2023-05-21T07:16:15.428Z,1010.12
2023-05-21T07:17:15.444Z,1010.10
2023-05-21T07:18:15.513Z,1010.22
2023-05-21T07:19:15.553Z,1010.18
2023-05-21T07:20:15.549Z,1010.27
2023-05-21T07:21:15.589Z,1010.32
2023-05-21T07:22:15.628Z,1010.29
2023-05-21T07:23:15.643Z,1010.26
2023-05-21T07:25:15.710Z,1010.24
2023-05-21T07:26:15.746Z,1010.22
2023-05-21T07:27:25.426Z,1010.20
2023-05-21T07:28:15.829Z,1010.19
2023-05-21T07:31:18.905Z,1010.22
2023-05-21T07:32:18.876Z,1010.20
2023-05-21T07:33:18.909Z,1010.22
2023-05-21T07:34:19.966Z,1010.21
2023-05-21T07:35:18.984Z,1010.18
2023-05-21T07:36:19.820Z,1010.22
2023-05-21T07:37:20.102Z,1010.21
2023-05-21T07:38:19.078Z,1010.17
2023-05-21T07:39:19.134Z,1010.20
2023-05-21T07:40:19.153Z,1010.18
2023-05-21T07:41:19.188Z,1010.17
2023-05-21T07:42:19.450Z,1010.14
2023-05-21T07:43:19.269Z,1010.15
2023-05-21T07:44:19.300Z,1010.20
2023-05-21T07:45:19.334Z,1010.16
2023-05-21T07:46:19.389Z,1010.12
2023-05-21T07:47:19.413Z,1010.16
2023-05-21T07:48:19.445Z,1010.16
2023-05-21T07:49:19.478Z,1010.13
2023-05-21T07:50:19.514Z,1010.16
2023-05-21T07:51:19.550Z,1010.17
2023-05-21T07:52:19.610Z,1010.15
2023-05-21T07:53:19.646Z,1010.12
2023-05-21T07:54:19.741Z,1010.05
2023-05-21T07:55:19.698Z,1010.04
2023-05-21T07:56:19.738Z,1010.07
2023-05-21T07:57:19.774Z,1010.01
2023-05-21T07:58:19.818Z,1010.03
2023-05-21T07:59:19.857Z,1010.04
2023-05-21T08:00:19.894Z,1010.03
2023-05-21T08:01:19.931Z,1010.04
2023-05-21T08:02:20.198Z,1010.08
2023-05-21T08:03:20.057Z,1010.04
2023-05-21T08:04:20.148Z,1010.03
2023-05-21T08:05:20.077Z,1009.99
2023-05-21T08:06:20.106Z,1010.03
2023-05-21T08:07:20.344Z,1009.99
2023-05-21T08:08:20.170Z,1009.99
2023-05-21T08:09:20.214Z,1009.98
2023-05-21T08:11:07.997Z,1010.03
2023-05-21T08:18:50.512Z,1010.10
2023-05-21T08:19:50.530Z,1010.06
2023-05-21T08:20:50.576Z,1010.05
2023-05-21T08:21:52.879Z,1010.02
2023-05-21T08:22:50.649Z,1010.01
2023-05-21T08:23:50.664Z,1010.04
2023-05-21T08:24:50.745Z,1010.01
2023-05-21T08:25:51.155Z,1010.02
2023-05-21T08:27:52.438Z,1009.99
2023-05-21T08:28:51.206Z,1010.00
2023-05-21T08:29:51.087Z,1009.97
2023-05-21T08:30:50.917Z,1010.00
2023-05-21T08:31:51.180Z,1010.06
2023-05-21T08:32:51.525Z,1009.97
2023-05-21T08:33:51.024Z,1010.02
2023-05-21T08:35:51.078Z,1010.06
2023-05-21T08:36:51.108Z,1010.04
2023-05-21T08:37:51.142Z,1009.98
2023-05-21T08:38:51.199Z,1009.96
2023-05-21T08:39:51.215Z,1009.99
2023-05-21T08:40:51.269Z,1010.01
2023-05-21T08:41:51.280Z,1010.04
2023-05-21T08:42:51.328Z,1010.07
2023-05-21T08:43:52.531Z,1010.10
2023-05-21T08:44:51.388Z,1010.10
2023-05-21T08:45:51.451Z,1010.11
2023-05-21T08:46:51.461Z,1010.09
2023-05-21T08:47:51.523Z,1010.04
2023-05-21T08:48:51.528Z,1010.00
2023-05-21T08:49:51.560Z,1009.95
2023-05-21T08:50:51.615Z,1010.00
2023-05-21T08:51:51.638Z,1009.92
2023-05-21T08:52:51.707Z,1009.89
2023-05-21T08:53:51.719Z,1009.89
2023-05-21T08:54:51.753Z,1009.95
2023-05-21T08:55:51.815Z,1010.01
2023-05-21T08:56:51.839Z,1009.98
2023-05-21T08:57:51.855Z,1010.00
2023-05-21T08:58:51.899Z,1009.96
2023-05-21T08:59:51.925Z,1009.87
2023-05-21T09:00:53.104Z,1009.91
2023-05-21T09:01:52.170Z,1009.90
2023-05-21T09:02:52.058Z,1009.92
2023-05-21T09:03:52.138Z,1009.93
2023-05-21T09:04:53.320Z,1009.89
2023-05-21T09:05:52.146Z,1009.90
2023-05-21T09:06:52.180Z,1009.91
2023-05-21T09:07:52.822Z,1009.89
2023-05-21T09:08:52.253Z,1009.86
2023-05-21T09:09:52.282Z,1009.89
2023-05-21T09:12:00.367Z,1009.93
2023-05-21T09:14:00.038Z,1009.84
2023-05-21T10:17:42.832Z,1009.36
2023-05-21T10:18:42.861Z,1009.34
2023-05-21T10:19:43.344Z,1009.34
2023-05-21T10:20:42.887Z,1009.35
2023-05-21T10:21:42.907Z,1009.33
2023-05-21T10:22:42.946Z,1009.36
2023-05-21T10:23:43.191Z,1009.34
2023-05-21T10:24:43.228Z,1009.34
2023-05-21T10:27:43.335Z,1009.35
2023-05-21T10:30:43.252Z,1009.20
2023-05-21T10:31:43.707Z,1009.23
2023-05-21T10:33:43.350Z,1009.16
2023-05-21T10:36:43.452Z,1009.13
2023-05-21T10:37:43.497Z,1009.11
2023-05-21T10:41:43.938Z,1009.04
2023-05-21T10:44:43.947Z,1009.02
2023-05-21T10:46:44.004Z,1009.00
2023-05-21T10:47:44.574Z,1008.96
2023-05-21T10:49:43.927Z,1008.92
2023-05-21T10:52:44.915Z,1008.97
2023-05-21T10:53:44.687Z,1008.98
2023-05-21T10:54:44.088Z,1009.02
2023-05-21T11:01:45.299Z,1009.03
2023-05-21T11:02:44.459Z,1008.94
2023-05-21T11:03:44.727Z,1008.91
2023-05-21T11:05:44.709Z,1008.92
2023-05-21T11:06:44.930Z,1008.90
2023-05-21T11:07:44.562Z,1008.85
2023-05-21T11:08:44.994Z,1008.97
2023-05-21T11:09:44.826Z,1008.93
2023-05-21T11:11:45.707Z,1008.95
2023-05-21T11:14:45.923Z,1008.85
2023-05-21T11:17:44.958Z,1008.91
2023-05-21T11:20:46.229Z,1008.93
2023-05-21T11:23:45.860Z,1008.78
2023-05-21T11:24:45.567Z,1008.73
2023-05-21T11:28:45.307Z,1008.64
2023-05-21T11:34:46.214Z,1008.58
2023-05-21T11:36:45.789Z,1008.56
2023-05-21T11:38:46.566Z,1008.59
2023-05-21T11:40:46.137Z,1008.52
2023-05-21T11:42:46.703Z,1008.53
2023-05-21T11:45:46.099Z,1008.52
2023-05-21T11:46:46.426Z,1008.55
2023-05-21T11:48:45.997Z,1008.58
2023-05-21T11:49:46.072Z,1008.55
2023-05-21T11:50:46.074Z,1008.57
2023-05-21T11:52:46.143Z,1008.61
2023-05-21T11:53:46.167Z,1008.55
2023-05-21T11:54:46.605Z,1008.58
2023-05-21T11:55:46.251Z,1008.54
2023-05-21T11:56:46.301Z,1008.54
2023-05-21T11:57:46.300Z,1008.52
2023-05-21T11:58:46.646Z,1008.53
2023-05-21T11:59:47.095Z,1008.51
2023-05-21T12:00:46.633Z,1008.38
2023-05-21T12:02:49.216Z,1008.47
2023-05-21T12:03:46.732Z,1008.43
2023-05-21T12:04:46.552Z,1008.47
2023-05-21T12:05:46.689Z,1008.52
2023-05-21T12:06:46.654Z,1008.54
2023-05-21T12:07:46.630Z,1008.49
2023-05-21T12:08:46.674Z,1008.49
2023-05-21T12:09:46.902Z,1008.49
2023-05-21T12:10:46.746Z,1008.46
2023-05-21T12:11:46.787Z,1008.48
2023-05-21T12:13:46.978Z,1008.43
2023-05-21T12:14:46.857Z,1008.45
2023-05-21T12:15:46.895Z,1008.42
2023-05-21T12:16:47.024Z,1008.38
2023-05-21T12:17:47.256Z,1008.36
2023-05-21T12:18:47.023Z,1008.35
2023-05-21T12:19:47.047Z,1008.32
2023-05-21T12:22:29.649Z,1008.35
2023-05-21T12:23:29.682Z,1008.36
2023-05-21T12:24:29.716Z,1008.37
2023-05-21T12:33:19.188Z,1008.33
2023-05-21T12:34:19.192Z,1008.38
2023-05-21T12:35:19.270Z,1008.31
2023-05-21T12:36:19.268Z,1008.37
2023-05-21T12:37:19.294Z,1008.29
2023-05-21T12:38:19.340Z,1008.33
2023-05-21T12:39:19.375Z,1008.26
2023-05-21T12:40:19.397Z,1008.30
2023-05-21T12:41:19.440Z,1008.36
2023-05-21T12:42:19.478Z,1008.29
2023-05-21T12:43:19.497Z,1008.26
2023-05-21T12:44:20.053Z,1008.29
2023-05-21T12:45:19.783Z,1008.32
2023-05-21T12:47:19.640Z,1008.26
2023-05-21T12:48:19.674Z,1008.31
2023-05-21T12:49:19.722Z,1008.29
2023-05-21T12:50:20.142Z,1008.17
2023-05-21T12:51:19.780Z,1008.20
2023-05-21T12:52:19.813Z,1008.24
2023-05-21T12:53:19.848Z,1008.23
2023-05-21T12:54:19.877Z,1008.19
2023-05-21T12:55:19.913Z,1008.17
2023-05-21T12:56:19.943Z,1008.13
2023-05-21T13:00:30.966Z,1008.09
2023-05-21T13:01:31.005Z,1008.10
2023-05-21T13:02:31.281Z,1008.15
2023-05-21T13:03:31.064Z,1008.16
2023-05-21T13:04:31.180Z,1008.13
2023-05-21T13:05:31.139Z,1008.11
2023-05-21T13:06:31.180Z,1008.11
2023-05-21T13:09:31.457Z,1008.08
2023-05-21T13:11:31.329Z,1008.06
2023-05-21T13:12:31.359Z,1008.10
2023-05-21T13:14:31.738Z,1007.97
2023-05-21T13:15:31.830Z,1008.00
2023-05-21T13:16:31.530Z,1007.97
2023-05-21T13:17:31.565Z,1007.93
2023-05-21T13:18:31.566Z,1007.93
2023-05-21T13:20:31.646Z,1007.96
2023-05-21T13:21:31.667Z,1007.90
2023-05-21T13:22:31.691Z,1007.93
2023-05-21T13:23:31.934Z,1007.93
2023-05-21T13:25:31.803Z,1007.90
2023-05-21T13:26:31.837Z,1007.93
2023-05-21T13:27:31.866Z,1007.90
2023-05-21T13:28:32.211Z,1007.86
2023-05-21T13:29:34.547Z,1007.86
2023-05-21T13:30:31.960Z,1007.84
2023-05-21T13:31:31.994Z,1007.84
2023-05-21T13:32:32.106Z,1007.82
2023-05-21T13:33:32.220Z,1007.84
2023-05-21T13:34:32.090Z,1007.89
2023-05-21T13:41:24.704Z,1007.80
2023-05-21T13:42:24.719Z,1007.82
2023-05-21T13:43:24.754Z,1007.89
2023-05-21T13:44:24.791Z,1007.81
2023-05-21T13:45:24.819Z,1007.78
2023-05-21T13:46:24.863Z,1007.79
2023-05-21T13:47:24.885Z,1007.77
2023-05-21T13:48:24.923Z,1007.79
2023-05-21T13:49:24.995Z,1007.78
2023-05-21T13:50:24.975Z,1007.72
2023-05-21T13:51:38.042Z,1007.71
2023-05-21T13:52:25.050Z,1007.70
2023-05-21T13:53:25.074Z,1007.70
2023-05-21T13:54:25.120Z,1007.69
2023-05-21T13:55:25.144Z,1007.67
2023-05-21T13:56:25.189Z,1007.71
2023-05-21T13:57:25.230Z,1007.71
2023-05-21T13:58:25.241Z,1007.69
2023-05-21T13:59:25.344Z,1007.67
2023-05-21T14:00:25.309Z,1007.65
2023-05-21T14:01:25.387Z,1007.63
2023-05-21T14:02:25.553Z,1007.64
2023-05-21T14:03:25.474Z,1007.62
2023-05-21T14:04:25.440Z,1007.57
2023-05-21T14:05:25.473Z,1007.60
2023-05-21T14:06:25.511Z,1007.56
2023-05-21T14:07:25.542Z,1007.66
2023-05-21T14:08:25.575Z,1007.62
2023-05-21T14:09:25.608Z,1007.57
2023-05-21T14:10:25.642Z,1007.59
2023-05-21T14:11:25.887Z,1007.60
2023-05-21T14:12:25.713Z,1007.57
2023-05-21T14:13:25.767Z,1007.57
2023-05-21T14:14:25.773Z,1007.60
2023-05-21T14:15:25.814Z,1007.60
2023-05-21T14:16:25.944Z,1007.63
2023-05-21T14:17:25.952Z,1007.58
2023-05-21T14:18:25.906Z,1007.60
2023-05-21T14:19:26.021Z,1007.58
2023-05-21T14:20:25.980Z,1007.65
2023-05-21T14:21:26.004Z,1007.63
2023-05-21T14:22:26.042Z,1007.66
2023-05-21T14:23:26.090Z,1007.63
2023-05-21T14:24:26.103Z,1007.60
2023-05-21T14:25:26.137Z,1007.56
2023-05-21T14:26:26.189Z,1007.64
2023-05-21T14:27:26.405Z,1007.57
2023-05-21T14:28:26.239Z,1007.63
2023-05-21T14:29:26.301Z,1007.63
2023-05-21T14:30:26.314Z,1007.62
2023-05-21T14:31:26.419Z,1007.69
2023-05-21T14:32:26.436Z,1007.67
2023-05-21T14:33:26.413Z,1007.62
2023-05-21T14:34:26.436Z,1007.56
2023-05-21T14:35:29.096Z,1007.58
2023-05-21T14:36:26.502Z,1007.53
2023-05-21T14:37:26.538Z,1007.60
2023-05-21T14:38:26.579Z,1007.56
2023-05-21T14:39:26.599Z,1007.53
2023-05-21T14:40:26.631Z,1007.51
2023-05-21T14:41:26.723Z,1007.56
2023-05-21T14:42:26.928Z,1007.46
2023-05-21T14:43:26.747Z,1007.48
2023-05-21T14:44:26.769Z,1007.49
2023-05-21T14:45:26.827Z,1007.52
2023-05-21T14:46:26.946Z,1007.60
2023-05-21T14:47:26.915Z,1007.56
2023-05-21T14:48:26.912Z,1007.53
2023-05-21T14:49:26.932Z,1007.56
2023-05-21T14:50:26.979Z,1007.54
2023-05-21T14:51:27.008Z,1007.53
2023-05-21T14:52:27.030Z,1007.53
2023-05-21T14:53:27.062Z,1007.51
2023-05-21T14:54:27.111Z,1007.52
2023-05-21T14:55:27.130Z,1007.55
2023-05-21T14:56:27.184Z,1007.58
2023-05-21T14:57:27.197Z,1007.56
2023-05-21T14:58:27.237Z,1007.63
2023-05-21T14:59:27.263Z,1007.61
2023-05-21T15:00:27.297Z,1007.60
2023-05-21T15:01:27.432Z,1007.58
2023-05-21T15:02:27.453Z,1007.55
2023-05-21T15:03:27.562Z,1007.54
2023-05-21T15:04:27.427Z,1007.53
2023-05-21T15:05:27.471Z,1007.50
2023-05-21T15:06:27.497Z,1007.48
2023-05-21T15:07:27.539Z,1007.49
2023-05-21T15:08:27.588Z,1007.48
2023-05-21T15:09:27.601Z,1007.49
2023-05-21T15:10:27.648Z,1007.48
2023-05-21T15:11:27.660Z,1007.48
2023-05-21T15:13:27.744Z,1007.45
2023-05-21T15:14:27.768Z,1007.44
2023-05-21T15:15:27.799Z,1007.52
2023-05-21T15:16:27.877Z,1007.46
2023-05-21T15:17:27.903Z,1007.39
2023-05-21T15:18:27.943Z,1007.41
2023-05-21T15:19:28.486Z,1007.39
2023-05-21T15:20:28.382Z,1007.40
2023-05-21T15:29:41.430Z,1007.26
2023-05-21T15:30:32.655Z,1007.27
2023-05-21T15:33:28.472Z,1007.22
2023-05-21T15:34:28.516Z,1007.26
2023-05-21T15:46:03.978Z,1007.12
2023-05-21T15:49:28.973Z,1007.22
2023-05-21T15:50:28.990Z,1007.23
2023-05-21T15:51:29.019Z,1007.19
2023-05-21T15:52:29.049Z,1007.14
2023-05-21T15:53:29.084Z,1007.16
2023-05-21T15:54:29.121Z,1007.06
2023-05-21T15:55:29.559Z,1007.20
2023-05-21T15:56:29.206Z,1007.13
2023-05-21T15:57:29.653Z,1007.13
2023-05-21T16:00:29.743Z,1007.15
2023-05-21T16:02:29.479Z,1007.13
2023-05-21T16:03:29.803Z,1007.16